createdAt,value
2022-12-08T00:01:42.995Z,25.63
2022-12-08T00:04:11.748Z,27.40
2022-12-08T00:07:00.959Z,25.97
2022-12-08T00:09:38.200Z,26.97
2022-12-08T00:12:10.048Z,29.83
2022-12-08T00:14:43.477Z,32.90
2022-12-08T00:17:14.156Z,39.10
2022-12-08T00:19:43.616Z,31.73
2022-12-08T00:22:14.811Z,30.87
2022-12-08T00:27:11.716Z,35.23
2022-12-08T00:29:41.280Z,31.33
2022-12-08T00:32:09.932Z,32.73
2022-12-08T00:34:38.454Z,31.27
2022-12-08T00:37:08.149Z,29.23
2022-12-08T00:39:38.312Z,32.03
2022-12-08T00:42:16.226Z,29.33
2022-12-08T00:44:46.356Z,29.63
2022-12-08T00:47:17.760Z,26.60
2022-12-08T00:49:49.549Z,24.93
2022-12-08T00:52:18.038Z,24.37
2022-12-08T00:54:54.553Z,24.20
2022-12-08T00:57:23.650Z,26.23
2022-12-08T00:59:52.209Z,27.60
2022-12-08T01:02:20.791Z,28.30
2022-12-08T01:04:49.573Z,29.57
2022-12-08T01:07:18.579Z,34.70
2022-12-08T01:09:50.122Z,31.00
2022-12-08T01:12:18.673Z,26.33
2022-12-08T01:14:47.512Z,23.87
2022-12-08T01:17:16.129Z,32.03
2022-12-08T01:19:44.664Z,29.43
2022-12-08T01:22:14.165Z,24.03
2022-12-08T01:27:11.828Z,26.27
2022-12-08T01:29:40.469Z,22.40
2022-12-08T01:32:09.964Z,19.73
2022-12-08T01:34:38.616Z,20.20
2022-12-08T01:37:07.974Z,20.90
2022-12-08T01:42:06.099Z,20.17
2022-12-08T01:44:59.442Z,20.63
2022-12-08T01:47:34.721Z,17.90
2022-12-08T01:50:05.174Z,19.83
2022-12-08T01:52:38.873Z,19.47
2022-12-08T01:55:12.949Z,19.23
2022-12-08T01:57:44.871Z,17.90
2022-12-08T02:00:17.239Z,17.77
2022-12-08T02:02:53.686Z,18.80
2022-12-08T02:05:25.721Z,18.30
2022-12-08T02:07:55.532Z,17.30
2022-12-08T02:10:25.920Z,17.53
2022-12-08T02:12:57.563Z,17.97
2022-12-08T02:15:38.114Z,18.30
2022-12-08T02:18:23.549Z,18.30
2022-12-08T02:21:02.014Z,17.90
2022-12-08T02:23:42.664Z,18.93
2022-12-08T02:26:55.424Z,19.10
2022-12-08T02:29:56.402Z,17.93
2022-12-08T02:32:57.315Z,18.80
2022-12-08T02:35:32.788Z,21.90
2022-12-08T02:38:14.168Z,16.97
2022-12-08T02:41:03.937Z,18.83
2022-12-08T02:43:38.413Z,18.53
2022-12-08T02:46:10.511Z,20.93
2022-12-08T02:48:40.064Z,20.23
2022-12-08T02:51:10.072Z,19.57
2022-12-08T02:53:38.634Z,18.27
2022-12-08T02:56:18.232Z,18.57
2022-12-08T02:59:17.199Z,21.20
2022-12-08T03:02:10.506Z,18.10
2022-12-08T03:04:46.531Z,20.10
2022-12-08T03:07:24.387Z,19.43
2022-12-08T03:09:57.686Z,18.70
2022-12-08T03:12:30.451Z,19.53
2022-12-08T03:17:33.645Z,18.77
2022-12-08T03:20:06.154Z,18.60
2022-12-08T03:22:36.849Z,19.73
2022-12-08T03:25:06.186Z,18.10
2022-12-08T03:27:34.805Z,18.40
2022-12-08T03:30:04.127Z,19.27
2022-12-08T03:32:38.800Z,19.57
2022-12-08T03:35:11.043Z,17.97
2022-12-08T03:37:42.676Z,18.77
2022-12-08T03:40:14.430Z,17.43
2022-12-08T03:42:42.952Z,18.70
2022-12-08T03:45:13.357Z,18.80
2022-12-08T03:50:08.802Z,19.97
2022-12-08T03:52:37.388Z,18.20
2022-12-08T03:55:08.392Z,19.17
2022-12-08T03:57:36.881Z,18.63
2022-12-08T04:00:07.007Z,18.33
2022-12-08T04:05:01.622Z,17.10
2022-12-08T04:07:30.880Z,16.70
2022-12-08T04:09:59.461Z,17.20
2022-12-08T04:12:29.219Z,18.27
2022-12-08T04:14:57.643Z,18.63
2022-12-08T04:17:26.152Z,17.23
2022-12-08T04:19:54.919Z,18.50
2022-12-08T04:22:23.556Z,16.73
2022-12-08T04:24:52.573Z,16.47
2022-12-08T04:27:21.032Z,17.33
2022-12-08T04:29:50.879Z,17.63
2022-12-08T04:32:19.364Z,16.90
2022-12-08T04:34:47.780Z,16.53
2022-12-08T04:37:16.264Z,17.00
2022-12-08T04:39:44.800Z,16.33
2022-12-08T04:42:13.493Z,16.97
2022-12-08T04:44:42.005Z,16.50
2022-12-08T04:47:12.354Z,16.03
2022-12-08T04:49:40.968Z,16.23
2022-12-08T04:52:16.402Z,16.20
2022-12-08T04:54:45.128Z,16.10
2022-12-08T04:57:13.679Z,15.20
2022-12-08T04:59:42.057Z,15.57
2022-12-08T05:02:16.842Z,15.53
2022-12-08T05:07:11.747Z,15.23
2022-12-08T05:12:06.660Z,16.47
2022-12-08T05:17:20.680Z,16.20
2022-12-08T05:19:49.164Z,15.07
2022-12-08T05:22:17.603Z,14.80
2022-12-08T05:24:47.829Z,16.17
2022-12-08T05:27:16.929Z,15.83
2022-12-08T05:29:48.401Z,15.77
2022-12-08T05:32:17.108Z,15.27
2022-12-08T05:34:46.877Z,15.23
2022-12-08T05:37:15.188Z,15.30
2022-12-08T05:39:43.530Z,14.60
2022-12-08T05:42:11.900Z,15.40
2022-12-08T05:44:40.352Z,15.67
2022-12-08T05:47:08.783Z,15.03
2022-12-08T05:49:37.317Z,15.40
2022-12-08T05:52:07.765Z,14.20
2022-12-08T05:54:36.198Z,14.53
2022-12-08T05:57:04.884Z,15.10
2022-12-08T05:59:33.339Z,14.33
2022-12-08T06:02:02.231Z,15.93
2022-12-08T06:04:30.941Z,15.90
2022-12-08T06:06:59.453Z,14.87
2022-12-08T06:09:29.656Z,14.33
2022-12-08T06:11:58.363Z,14.80
2022-12-08T06:14:26.796Z,14.57
2022-12-08T06:16:55.493Z,15.23
2022-12-08T06:19:24.028Z,14.93
2022-12-08T06:21:52.557Z,15.33
2022-12-08T06:24:21.130Z,15.00
2022-12-08T06:26:51.183Z,17.20
2022-12-08T06:29:19.816Z,16.63
2022-12-08T06:31:48.505Z,17.67
2022-12-08T06:34:17.203Z,18.07
2022-12-08T06:36:46.026Z,16.80
2022-12-08T06:39:14.714Z,15.77
2022-12-08T06:41:57.138Z,17.50
2022-12-08T06:44:27.181Z,17.67
2022-12-08T22:31:32.963Z,21.57
2022-12-08T22:34:21.823Z,21.90
2022-12-08T22:36:50.344Z,22.27
2022-12-08T22:39:18.728Z,23.10
2022-12-08T22:41:47.173Z,22.77
2022-12-08T22:44:16.569Z,22.37
2022-12-08T22:46:46.636Z,21.90
2022-12-08T22:49:15.255Z,21.47
2022-12-08T22:51:43.842Z,22.40
2022-12-08T22:54:12.892Z,22.17
2022-12-08T22:56:41.547Z,21.57
2022-12-08T22:59:20.043Z,21.70
2022-12-08T23:01:50.393Z,21.03
2022-12-08T23:04:19.365Z,20.40
2022-12-08T23:06:48.260Z,21.00
2022-12-08T23:09:17.088Z,20.23
2022-12-08T23:11:46.297Z,22.63
2022-12-08T23:14:15.206Z,20.80
2022-12-08T23:16:44.017Z,21.67
2022-12-08T23:19:14.223Z,24.63
2022-12-08T23:21:42.767Z,21.67
2022-12-08T23:24:11.324Z,22.03
2022-12-08T23:26:54.983Z,22.77
2022-12-08T23:29:24.180Z,22.60
2022-12-08T23:32:06.958Z,21.43
2022-12-08T23:34:37.189Z,23.20
2022-12-08T23:37:05.893Z,22.53
2022-12-08T23:39:34.802Z,24.90
2022-12-08T23:42:03.656Z,23.40
2022-12-08T23:44:32.641Z,23.17
2022-12-08T23:47:01.673Z,21.47
2022-12-08T23:49:30.439Z,21.53
2022-12-08T23:52:00.386Z,21.47
2022-12-08T23:54:29.080Z,21.33
2022-12-08T23:56:57.540Z,21.90
2022-12-08T23:59:26.132Z,22.80
